EDHK/KEL METAR and TAF weather

Enter ICAO airport designator
Station Type Date Time Source
EDHK METAR 2021/04/18 03:20 UTC NOAA

EDHK 180320Z AUTO /////KT ///V/// 9999 // NCD 06/02 Q1023


Station Type Date Time Source
EDHK Decoded METAR 2021/04/18 03:20 UTC NOAA

Kiel / Holtenau Civilian, Germany (EDHK) 54-23N 010-10E
Apr 17, 2021 - 11:20 PM EDT / 2021.04.18 0320 UTC
Visibility: greater than 7 mile(s):0
Temperature: 42 F (6 C)
Dew Point: 35 F (2 C)
Relative Humidity: 75%
Pressure (altimeter): 30.21 in. Hg (1023 hPa)
ob: EDHK 180320Z AUTO /////KT ///V/// 9999 // NCD 06/02 Q1023
cycle: 3

Station Type Date Time Source
EDHK TAF 2013/08/11 06:39 UTC NOAA

TAF EDHK 110633Z 1106/1118 24005KT 9999 SCT030
BECMG 1106/1109 25010KT
TEMPO 1106/1118 27015G25KT 4500 SHRA BKN012CB

Example: see airport list